createdAt,value
2023-01-13T00:01:14.823Z,98003.41
2023-01-13T00:03:47.795Z,97998.63
2023-01-13T00:06:21.384Z,97991.78
2023-01-13T00:08:49.959Z,97989.13
2023-01-13T00:11:17.509Z,97987.66
2023-01-13T00:13:44.167Z,97987.66
2023-01-13T00:16:15.295Z,97986.44
2023-01-13T00:18:42.856Z,97988.19
2023-01-13T00:21:19.138Z,97982.84
2023-01-13T00:23:46.325Z,97980.91
2023-01-13T00:26:17.813Z,97971.84
2023-01-13T00:28:44.606Z,97967.59
2023-01-13T00:31:16.314Z,97959.78
2023-01-13T00:33:43.252Z,97961.47
2023-01-13T00:36:14.489Z,97953.19
2023-01-13T00:38:42.918Z,97953.16
2023-01-13T00:41:19.397Z,97950.16
2023-01-13T00:43:46.687Z,97956.50
2023-01-13T00:46:17.597Z,97950.97
2023-01-13T00:48:44.934Z,97942.34
2023-01-13T00:51:16.859Z,97936.47
2023-01-13T00:53:50.846Z,97942.91
2023-01-13T00:56:39.849Z,97943.44
2023-01-13T00:59:13.366Z,97951.41
2023-01-13T01:01:41.516Z,97956.63
2023-01-13T01:04:08.420Z,97951.66
2023-01-13T01:06:35.263Z,97957.84
2023-01-13T01:09:02.040Z,97957.28
2023-01-13T01:11:31.373Z,97961.19
2023-01-13T01:14:02.112Z,97964.78
2023-01-13T01:16:32.560Z,97955.56
2023-01-13T01:19:00.829Z,97954.84
2023-01-13T01:21:28.829Z,97962.69
2023-01-13T01:23:55.874Z,97958.66
2023-01-13T01:26:25.841Z,97959.34
2023-01-13T01:28:53.249Z,97953.78
2023-01-13T01:31:24.417Z,97949.13
2023-01-13T01:33:51.829Z,97944.19
2023-01-13T01:36:20.741Z,97953.31
2023-01-13T01:38:49.421Z,97949.03
2023-01-13T01:41:23.194Z,97949.72
2023-01-13T01:43:59.902Z,97945.50
2023-01-13T01:46:42.391Z,97948.56
2023-01-13T01:49:26.123Z,97958.56
2023-01-13T01:52:02.512Z,97951.31
2023-01-13T01:54:50.821Z,97948.69
2023-01-13T01:57:23.653Z,97948.41
2023-01-13T01:59:50.691Z,97950.91
2023-01-13T02:02:17.941Z,97942.91
2023-01-13T02:04:51.558Z,97933.53
2023-01-13T02:07:29.586Z,97933.91
2023-01-13T02:10:04.608Z,97945.88
2023-01-13T02:12:33.817Z,97939.19
2023-01-13T02:15:13.642Z,97928.66
2023-01-13T02:18:26.643Z,97921.69
2023-01-13T02:21:31.658Z,97923.72
2023-01-13T02:24:54.868Z,97925.94
2023-01-13T02:28:05.145Z,97914.47
2023-01-13T02:31:06.807Z,97918.72
2023-01-13T02:34:44.889Z,97920.69
2023-01-13T02:37:28.527Z,97918.13
2023-01-13T02:40:00.267Z,97902.38
2023-01-13T02:42:57.979Z,97908.44
2023-01-13T02:45:46.162Z,97908.53
2023-01-13T02:48:15.142Z,97913.34
2023-01-13T02:50:51.874Z,97903.22
2023-01-13T02:53:34.238Z,97903.53
2023-01-13T02:56:03.582Z,97907.69
2023-01-13T02:58:32.506Z,97905.41
2023-01-13T03:00:59.177Z,97915.31
2023-01-13T03:03:28.329Z,97893.06
2023-01-13T03:06:25.832Z,97891.25
2023-01-13T03:08:55.202Z,97892.72
2023-01-13T03:11:22.125Z,97889.94
2023-01-13T03:14:15.081Z,97892.66
2023-01-13T03:17:29.892Z,97879.63
2023-01-13T03:20:22.278Z,97881.72
2023-01-13T03:23:08.610Z,97888.00
2023-01-13T03:25:56.464Z,97885.41
2023-01-13T03:28:33.819Z,97881.94
2023-01-13T03:31:10.862Z,97881.84
2023-01-13T03:33:46.371Z,97875.84
2023-01-13T03:36:16.640Z,97887.41
2023-01-13T03:38:50.215Z,97879.09
2023-01-13T03:41:27.847Z,97883.56
2023-01-13T03:44:23.797Z,97879.28
2023-01-13T03:47:06.549Z,97877.91
2023-01-13T03:49:48.351Z,97866.56
2023-01-13T03:52:25.035Z,97858.50
2023-01-13T03:54:58.802Z,97872.25
2023-01-13T03:57:31.481Z,97861.19
2023-01-13T04:00:02.083Z,97855.88
2023-01-13T04:02:47.726Z,97861.94
2023-01-13T04:05:15.097Z,97863.63
2023-01-13T04:08:02.807Z,97862.13
2023-01-13T04:10:42.606Z,97862.69
2023-01-13T04:13:15.618Z,97873.34
2023-01-13T04:15:46.800Z,97863.31
2023-01-13T04:18:21.183Z,97851.19
2023-01-13T04:20:50.665Z,97856.34
2023-01-13T04:23:18.725Z,97867.31
2023-01-13T04:25:46.965Z,97865.75
2023-01-13T04:28:14.355Z,97855.91
2023-01-13T04:30:42.390Z,97871.44
2023-01-13T04:33:09.943Z,97863.13
2023-01-13T04:35:37.466Z,97863.13
2023-01-13T04:38:12.100Z,97867.03
2023-01-13T04:40:39.857Z,97875.66
2023-01-13T04:43:06.951Z,97878.94
2023-01-13T04:45:34.237Z,97879.88
2023-01-13T04:48:01.194Z,97906.19
2023-01-13T04:50:27.936Z,97919.59
2023-01-13T04:52:55.029Z,97940.63
2023-01-13T04:55:25.297Z,97937.59
2023-01-13T04:57:52.579Z,97928.31
2023-01-13T05:00:22.171Z,97923.19
2023-01-13T05:02:52.195Z,97932.50
2023-01-13T05:05:19.375Z,97938.34
2023-01-13T05:07:45.995Z,97930.28
2023-01-13T05:10:13.136Z,97929.19
2023-01-13T05:12:59.373Z,97928.34
2023-01-13T05:15:44.799Z,97944.28
2023-01-13T05:18:12.324Z,97953.78
2023-01-13T05:20:38.925Z,97954.53
2023-01-13T05:23:23.950Z,97957.34
2023-01-13T05:25:50.602Z,97959.16
2023-01-13T05:28:17.335Z,97949.91
2023-01-13T05:30:49.338Z,97959.75
2023-01-13T05:33:20.872Z,97956.47
2023-01-13T05:35:48.092Z,97935.63
2023-01-13T05:38:15.339Z,97943.50
2023-01-13T05:41:01.189Z,97953.47
2023-01-13T05:43:28.436Z,97952.44
2023-01-13T05:46:04.650Z,97947.78
2023-01-13T05:48:40.803Z,97934.38
2023-01-13T05:51:11.009Z,97934.25
2023-01-13T05:53:37.748Z,97942.31
2023-01-13T05:56:07.142Z,97934.53
2023-01-13T05:58:34.430Z,97926.81
2023-01-13T06:01:08.781Z,97950.16
2023-01-13T06:03:37.143Z,97938.56
2023-01-13T06:06:04.560Z,97941.13
2023-01-13T06:08:31.958Z,97954.03
2023-01-13T06:10:58.682Z,97946.28
2023-01-13T06:13:25.788Z,97934.13
2023-01-13T06:15:58.963Z,97895.69
2023-01-13T06:18:26.444Z,97904.13
2023-01-13T06:20:53.182Z,97915.78
2023-01-13T06:23:19.886Z,97898.06
2023-01-13T06:26:17.534Z,97906.38
2023-01-13T06:28:44.115Z,97898.25
2023-01-13T06:31:11.447Z,97907.72
2023-01-13T06:34:02.333Z,97936.16
2023-01-13T06:36:42.263Z,97933.72
2023-01-13T06:39:10.781Z,97925.97
2023-01-13T06:41:59.018Z,97921.84
2023-01-13T06:44:25.665Z,97916.97
2023-01-13T06:46:52.514Z,97923.84
2023-01-13T06:49:21.461Z,97942.53
2023-01-13T06:51:50.540Z,97945.66
2023-01-13T06:54:18.805Z,97939.72
2023-01-13T06:56:45.365Z,97926.53
2023-01-13T06:59:11.953Z,97928.69
2023-01-13T07:01:38.683Z,97924.13
2023-01-13T07:04:13.592Z,97926.41
2023-01-13T07:06:40.219Z,97932.38
2023-01-13T07:09:07.019Z,97935.06
2023-01-13T07:11:33.670Z,97928.03
2023-01-13T07:14:20.010Z,97929.38
2023-01-13T07:16:46.779Z,97935.50
2023-01-13T07:19:13.542Z,97946.34
2023-01-13T07:21:40.110Z,97939.09
2023-01-13T07:24:06.934Z,97944.81
2023-01-13T07:26:33.546Z,97957.63
2023-01-13T07:29:00.895Z,97967.75
2023-01-13T07:31:27.486Z,97963.41
2023-01-13T07:33:54.113Z,97967.56
2023-01-13T07:36:24.060Z,97971.09
2023-01-13T07:38:54.743Z,97977.47
2023-01-13T07:41:42.422Z,97980.88
2023-01-13T07:44:10.667Z,97984.63
2023-01-13T07:46:38.598Z,97980.28
2023-01-13T07:49:06.172Z,97990.91
2023-01-13T07:51:38.239Z,97996.09
2023-01-13T07:54:05.759Z,97999.63
2023-01-13T07:56:32.914Z,98003.47
2023-01-13T07:59:00.949Z,98010.63
2023-01-13T08:01:28.207Z,98015.38
2023-01-13T08:03:56.121Z,98005.78
2023-01-13T08:06:22.760Z,98017.28
2023-01-13T08:08:49.382Z,98010.63
2023-01-13T08:11:18.277Z,98004.88
2023-01-13T08:13:45.375Z,98014.94
2023-01-13T08:16:15.077Z,98017.94
2023-01-13T08:18:42.418Z,98013.16
2023-01-13T08:21:13.157Z,98019.16
2023-01-13T08:23:42.384Z,98013.00
2023-01-13T08:26:12.644Z,98010.09
2023-01-13T08:28:41.992Z,98013.50
2023-01-13T08:31:13.537Z,98016.16
2023-01-13T08:33:40.625Z,98026.78
2023-01-13T08:36:12.094Z,98016.13
2023-01-13T08:38:39.791Z,98012.41
2023-01-13T08:41:12.286Z,98019.06
2023-01-13T08:43:39.190Z,98020.50
2023-01-13T08:46:06.463Z,98026.41
2023-01-13T08:48:33.516Z,98024.53
2023-01-13T08:51:06.479Z,98027.50
2023-01-13T08:53:33.379Z,98041.38
2023-01-13T08:56:00.008Z,98040.16
2023-01-13T08:58:26.934Z,98044.75
2023-01-13T09:00:53.651Z,98043.59
2023-01-13T09:03:20.330Z,98048.00
2023-01-13T09:05:46.986Z,98045.00
2023-01-13T09:08:13.627Z,98047.19
2023-01-13T09:10:40.636Z,98061.97
2023-01-13T09:13:12.911Z,98056.81
2023-01-13T09:15:46.451Z,98063.59
2023-01-13T09:18:13.312Z,98071.78
2023-01-13T09:20:40.285Z,98064.31
2023-01-13T09:23:10.076Z,98066.59
2023-01-13T09:25:37.559Z,98074.28
2023-01-13T09:28:08.333Z,98073.25
2023-01-13T09:30:36.719Z,98076.28
2023-01-13T09:33:25.538Z,98089.72
2023-01-13T09:35:52.163Z,98085.47
2023-01-13T09:38:18.763Z,98096.50
2023-01-13T09:40:48.953Z,98099.63
2023-01-13T09:43:46.377Z,98105.50
2023-01-13T09:46:40.883Z,98116.56
2023-01-13T09:49:21.978Z,98105.56
2023-01-13T09:51:57.769Z,98129.50
2023-01-13T09:54:33.718Z,98120.50
2023-01-13T09:57:00.879Z,98121.47
2023-01-13T09:59:32.546Z,98127.19
2023-01-13T10:02:43.171Z,98115.88
2023-01-13T10:05:24.882Z,98120.88
2023-01-13T10:07:57.270Z,98122.78
2023-01-13T10:11:22.162Z,98126.88
2023-01-13T10:13:56.657Z,98143.50
2023-01-13T10:16:44.692Z,98126.97
2023-01-13T10:19:29.193Z,98134.72
2023-01-13T10:22:28.544Z,98126.25
2023-01-13T10:25:57.778Z,98131.84
2023-01-13T10:28:25.282Z,98133.75
2023-01-13T10:30:52.701Z,98125.31
2023-01-13T10:33:29.815Z,98140.81
2023-01-13T10:36:14.423Z,98140.16
2023-01-13T10:38:49.874Z,98126.09
2023-01-13T10:41:18.051Z,98143.81
2023-01-13T10:43:51.200Z,98133.22
2023-01-13T10:46:19.890Z,98160.50
2023-01-13T10:48:55.897Z,98132.50
2023-01-13T10:51:29.386Z,98139.88
2023-01-13T10:54:01.051Z,98141.44
2023-01-13T10:56:32.285Z,98137.50
2023-01-13T10:59:22.274Z,98146.09
2023-01-13T11:02:01.273Z,98136.31
2023-01-13T11:04:40.468Z,98143.19
2023-01-13T11:07:40.787Z,98154.41
2023-01-13T11:10:22.478Z,98153.22
2023-01-13T11:13:23.306Z,98146.28
2023-01-13T11:16:13.845Z,98160.75
2023-01-13T11:19:13.874Z,98155.56
2023-01-13T11:22:19.530Z,98148.50
2023-01-13T11:24:56.835Z,98136.78
2023-01-13T11:27:56.167Z,98150.06
2023-01-13T11:30:43.047Z,98135.34
2023-01-13T11:33:43.963Z,98141.13
2023-01-13T11:36:36.483Z,98127.72
2023-01-13T11:39:34.152Z,98122.28
2023-01-13T11:42:21.792Z,98124.47
2023-01-13T11:45:19.529Z,98120.97
2023-01-13T11:47:49.529Z,98128.66
2023-01-13T11:50:31.228Z,98147.38
2023-01-13T11:53:10.347Z,98139.91
2023-01-13T11:56:16.747Z,98125.78
2023-01-13T11:59:13.796Z,98136.78
2023-01-13T12:02:16.230Z,98131.28
2023-01-13T12:05:23.575Z,98133.50
2023-01-13T12:08:10.003Z,98132.31
2023-01-13T12:11:19.008Z,98131.09
2023-01-13T12:14:20.094Z,98133.97
2023-01-13T12:16:49.510Z,98131.78
2023-01-13T12:19:27.949Z,98123.06
2023-01-13T12:22:10.571Z,98126.97
2023-01-13T12:25:05.401Z,98132.19
2023-01-13T12:28:00.705Z,98130.66
2023-01-13T12:30:40.868Z,98125.06
2023-01-13T12:33:54.731Z,98117.25
2023-01-13T12:36:53.312Z,98116.91
2023-01-13T12:39:58.281Z,98119.22
2023-01-13T12:43:19.841Z,98130.66
2023-01-13T12:45:47.018Z,98130.06
2023-01-13T12:48:54.520Z,98122.19
2023-01-13T12:51:44.421Z,98112.81
2023-01-13T12:54:37.093Z,98132.63
2023-01-13T12:57:27.387Z,98117.72
2023-01-13T13:00:02.927Z,98120.25
2023-01-13T13:02:36.205Z,98110.41
2023-01-13T13:05:18.042Z,98119.34
2023-01-13T13:08:04.183Z,98130.53
2023-01-13T13:10:37.673Z,98123.25
2023-01-13T13:13:20.288Z,98133.38
2023-01-13T13:15:49.874Z,98136.81
2023-01-13T13:18:27.359Z,98123.25
2023-01-13T13:21:05.063Z,98154.06
2023-01-13T13:23:45.728Z,98140.69
2023-01-13T13:26:19.941Z,98137.25
2023-01-13T13:29:28.257Z,98143.94
2023-01-13T13:32:30.826Z,98163.47
2023-01-13T13:35:43.220Z,98179.28
2023-01-13T13:38:55.106Z,98189.09
2023-01-13T13:41:43.583Z,98165.81
2023-01-13T13:44:41.159Z,98170.25
2023-01-13T13:47:10.138Z,98157.47
2023-01-13T13:49:48.942Z,98176.06
2023-01-13T13:52:29.567Z,98172.72
2023-01-13T13:55:08.239Z,98178.28
2023-01-13T13:57:40.068Z,98166.91
2023-01-13T14:00:17.032Z,98166.53
2023-01-13T14:02:54.397Z,98172.88
2023-01-13T14:05:35.991Z,98181.38
2023-01-13T14:08:06.873Z,98189.03
2023-01-13T14:10:39.441Z,98183.16
2023-01-13T14:13:22.360Z,98191.50
2023-01-13T14:15:56.585Z,98192.06
2023-01-13T14:18:23.690Z,98206.97
2023-01-13T14:21:19.381Z,98194.97
2023-01-13T14:24:00.252Z,98215.97
2023-01-13T14:26:31.391Z,98210.75
2023-01-13T14:29:01.447Z,98207.78
2023-01-13T14:31:28.785Z,98197.66
2023-01-13T14:33:59.330Z,98212.16
2023-01-13T14:36:39.223Z,98215.34
2023-01-13T14:39:05.829Z,98214.16
2023-01-13T14:41:37.380Z,98219.44
2023-01-13T14:44:25.192Z,98208.69
2023-01-13T14:46:54.914Z,98208.88
2023-01-13T14:49:39.341Z,98212.09
2023-01-13T14:52:14.655Z,98212.88
2023-01-13T14:54:41.211Z,98226.47
2023-01-13T14:57:27.656Z,98230.13
2023-01-13T15:00:16.068Z,98232.38
2023-01-13T15:02:58.061Z,98233.63
2023-01-13T15:05:27.786Z,98237.47
2023-01-13T15:08:26.262Z,98238.88
2023-01-13T15:11:00.784Z,98246.16
2023-01-13T15:13:48.667Z,98244.59
2023-01-13T15:16:24.851Z,98252.03
2023-01-13T15:18:52.539Z,98263.63
2023-01-13T15:21:19.484Z,98273.34
2023-01-13T15:23:47.270Z,98281.53
2023-01-13T15:26:24.040Z,98287.94
2023-01-13T15:28:52.257Z,98286.78
2023-01-13T15:31:19.973Z,98292.56
2023-01-13T15:33:46.668Z,98288.63
2023-01-13T15:36:26.102Z,98286.78
2023-01-13T15:38:53.720Z,98295.25
2023-01-13T15:41:39.303Z,98287.25
2023-01-13T15:44:24.796Z,98298.97
2023-01-13T15:46:52.166Z,98295.09
2023-01-13T15:49:38.133Z,98306.41
2023-01-13T15:52:21.641Z,98301.06
2023-01-13T15:54:49.431Z,98309.72
2023-01-13T15:57:27.297Z,98302.19
2023-01-13T15:59:58.432Z,98305.97
2023-01-13T16:02:25.243Z,98299.91
2023-01-13T16:04:53.866Z,98306.25
2023-01-13T16:07:22.879Z,98321.97
2023-01-13T16:09:49.605Z,98314.38
2023-01-13T16:12:16.443Z,98324.56
2023-01-13T16:14:43.947Z,98331.63
2023-01-13T16:17:22.409Z,98343.34
2023-01-13T16:19:49.978Z,98346.75
2023-01-13T16:22:17.852Z,98346.47
2023-01-13T16:24:44.478Z,98347.81
2023-01-13T16:27:19.113Z,98348.31
2023-01-13T16:29:47.429Z,98364.19
2023-01-13T16:32:14.536Z,98360.31
2023-01-13T16:34:41.541Z,98371.59
2023-01-13T16:37:26.307Z,98367.47
2023-01-13T16:39:54.104Z,98377.28
2023-01-13T16:42:21.547Z,98374.94
2023-01-13T16:44:49.723Z,98381.94
2023-01-13T16:47:18.177Z,98393.88
2023-01-13T16:49:45.867Z,98400.13
2023-01-13T16:52:12.625Z,98399.06
2023-01-13T16:54:39.357Z,98409.28
2023-01-13T16:57:07.551Z,98410.47
2023-01-13T16:59:34.155Z,98406.53
2023-01-13T17:02:02.047Z,98423.47
2023-01-13T17:04:29.084Z,98420.97
2023-01-13T17:07:00.626Z,98434.22
2023-01-13T17:09:29.310Z,98440.88
2023-01-13T17:11:57.210Z,98439.88
2023-01-13T17:14:24.419Z,98446.19
2023-01-13T17:16:54.879Z,98442.69
2023-01-13T17:19:25.479Z,98445.75
2023-01-13T17:21:52.297Z,98450.16
2023-01-13T17:24:20.271Z,98457.13
2023-01-13T17:26:50.085Z,98460.13
2023-01-13T17:29:23.364Z,98450.63
2023-01-13T17:31:51.735Z,98460.56
2023-01-13T17:34:19.284Z,98452.38
2023-01-13T17:36:45.868Z,98456.06
2023-01-13T17:39:18.622Z,98444.88
2023-01-13T17:41:47.268Z,98441.88
2023-01-13T17:44:19.035Z,98437.97
2023-01-13T17:46:48.794Z,98444.47
2023-01-13T17:49:18.799Z,98446.16
2023-01-13T17:51:50.865Z,98456.00
2023-01-13T17:54:18.270Z,98450.16
2023-01-13T17:56:44.863Z,98461.00
2023-01-13T17:59:12.967Z,98470.09
2023-01-13T18:01:40.100Z,98476.34
2023-01-13T18:04:07.180Z,98483.44
2023-01-13T18:06:33.777Z,98492.59
2023-01-13T18:09:01.313Z,98496.41
2023-01-13T18:11:28.025Z,98493.38
2023-01-13T18:14:00.081Z,98496.25
2023-01-13T18:16:30.349Z,98499.00
2023-01-13T18:19:18.400Z,98509.22
2023-01-13T18:22:05.492Z,98517.53
2023-01-13T18:24:50.797Z,98518.28
2023-01-13T18:27:22.675Z,98534.38
2023-01-13T18:29:54.414Z,98541.94
2023-01-13T18:32:23.352Z,98538.13
2023-01-13T18:34:53.956Z,98549.75
2023-01-13T18:37:25.590Z,98535.09
2023-01-13T18:39:52.313Z,98552.78
2023-01-13T18:42:37.366Z,98554.59
2023-01-13T18:45:04.456Z,98560.09
2023-01-13T18:47:33.446Z,98563.00
2023-01-13T18:50:00.436Z,98557.50
2023-01-13T18:52:28.363Z,98564.13
2023-01-13T18:54:55.003Z,98566.34
2023-01-13T18:57:22.184Z,98571.38
2023-01-13T18:59:48.790Z,98582.97
2023-01-13T19:02:19.470Z,98577.31
2023-01-13T19:04:46.934Z,98590.84
2023-01-13T19:07:22.115Z,98593.47
2023-01-13T19:09:49.918Z,98596.13
2023-01-13T19:12:25.740Z,98594.63
2023-01-13T19:14:58.174Z,98591.59
2023-01-13T19:17:27.094Z,98600.69
2023-01-13T19:19:57.128Z,98593.13
2023-01-13T19:22:33.421Z,98601.78
2023-01-13T19:25:01.692Z,98610.25
2023-01-13T19:27:28.927Z,98612.72
2023-01-13T19:30:00.036Z,98617.25
2023-01-13T19:32:27.881Z,98627.75
2023-01-13T19:34:56.125Z,98634.34
2023-01-13T19:37:22.698Z,98623.66
2023-01-13T19:39:49.373Z,98626.25
2023-01-13T19:42:37.169Z,98636.22
2023-01-13T19:45:22.562Z,98633.63
2023-01-13T19:47:49.181Z,98641.50
2023-01-13T19:50:15.969Z,98642.41
2023-01-13T19:52:42.689Z,98653.31
2023-01-13T19:55:12.152Z,98658.63
2023-01-13T19:57:40.046Z,98656.72
2023-01-13T20:00:09.160Z,98671.72
2023-01-13T20:02:36.797Z,98665.38
2023-01-13T20:05:05.715Z,98667.84
2023-01-13T20:07:33.758Z,98681.19
2023-01-13T20:10:01.461Z,98680.78
2023-01-13T20:12:29.059Z,98686.47
2023-01-13T20:14:56.151Z,98689.84
2023-01-13T20:17:25.697Z,98688.50
2023-01-13T20:19:52.822Z,98692.06
2023-01-13T20:22:19.499Z,98694.72
2023-01-13T20:24:46.128Z,98698.28
2023-01-13T20:27:12.850Z,98695.44
2023-01-13T20:29:39.548Z,98699.41
2023-01-13T20:32:08.816Z,98706.38
2023-01-13T20:34:36.394Z,98707.88
2023-01-13T20:37:03.083Z,98704.88
2023-01-13T20:39:29.739Z,98719.13
2023-01-13T20:42:15.451Z,98721.75
2023-01-13T20:44:43.940Z,98735.16
2023-01-13T20:47:10.734Z,98734.38
2023-01-13T20:49:37.474Z,98735.69
2023-01-13T20:52:09.301Z,98739.28
2023-01-13T20:54:37.387Z,98750.75
2023-01-13T20:57:05.451Z,98753.94
2023-01-13T20:59:32.323Z,98758.31
2023-01-13T21:02:01.533Z,98756.41
2023-01-13T21:04:28.736Z,98752.28
2023-01-13T21:06:56.161Z,98755.84
2023-01-13T21:09:23.733Z,98760.16
2023-01-13T21:12:09.504Z,98760.91
2023-01-13T21:14:54.879Z,98756.94
2023-01-13T21:17:42.967Z,98762.44
2023-01-13T21:20:12.531Z,98759.78
2023-01-13T21:22:40.554Z,98756.63
2023-01-13T21:25:07.779Z,98763.00
2023-01-13T21:27:34.602Z,98771.47
2023-01-13T21:30:01.382Z,98774.28
2023-01-13T21:32:28.034Z,98772.41
2023-01-13T21:34:58.873Z,98782.00
2023-01-13T21:37:25.796Z,98777.97
2023-01-13T21:39:52.418Z,98785.31
2023-01-13T21:42:37.824Z,98783.47
2023-01-13T21:45:23.915Z,98787.16
2023-01-13T21:47:50.742Z,98790.91
2023-01-13T21:50:24.477Z,98796.94
2023-01-13T21:52:54.913Z,98790.13
2023-01-13T21:55:25.296Z,98792.75
2023-01-13T21:57:57.494Z,98792.94
2023-01-13T22:00:29.040Z,98791.66
2023-01-13T22:02:56.166Z,98801.81
2023-01-13T22:05:24.595Z,98801.03
2023-01-13T22:07:52.006Z,98801.00
2023-01-13T22:10:22.151Z,98811.06
2023-01-13T22:12:55.620Z,98817.16
2023-01-13T22:15:26.639Z,98821.94
2023-01-13T22:17:55.101Z,98833.97
2023-01-13T22:20:22.153Z,98848.06
2023-01-13T22:22:49.037Z,98836.44
2023-01-13T22:25:17.322Z,98832.34
2023-01-13T22:27:44.840Z,98834.34
2023-01-13T22:30:21.687Z,98833.16
2023-01-13T22:32:48.590Z,98836.34
2023-01-13T22:35:18.010Z,98835.81
2023-01-13T22:37:44.624Z,98824.81
2023-01-13T22:40:12.275Z,98828.16
2023-01-13T22:42:40.875Z,98829.28
2023-01-13T22:45:11.596Z,98834.38
2023-01-13T22:47:38.566Z,98832.25
2023-01-13T22:50:07.242Z,98835.47
2023-01-13T22:52:35.073Z,98836.28
2023-01-13T22:55:01.812Z,98842.69
2023-01-13T22:57:46.676Z,98837.19
2023-01-13T23:00:15.375Z,98838.03
2023-01-13T23:02:42.073Z,98843.97
2023-01-13T23:05:10.053Z,98846.59
2023-01-13T23:07:36.606Z,98840.25
2023-01-13T23:10:04.468Z,98848.53
2023-01-13T23:12:31.087Z,98833.03
2023-01-13T23:14:57.685Z,98835.69
2023-01-13T23:17:24.288Z,98840.63
2023-01-13T23:19:50.925Z,98842.06
2023-01-13T23:22:17.514Z,98834.28
2023-01-13T23:24:44.122Z,98848.75
2023-01-13T23:27:12.364Z,98844.75
2023-01-13T23:29:41.401Z,98845.13
2023-01-13T23:32:08.058Z,98851.75
2023-01-13T23:34:36.271Z,98851.56
2023-01-13T23:37:03.012Z,98853.06
2023-01-13T23:39:29.562Z,98850.03
2023-01-13T23:41:56.261Z,98860.38
2023-01-13T23:44:23.182Z,98860.22
2023-01-13T23:46:49.854Z,98862.09
2023-01-13T23:49:16.504Z,98857.56
2023-01-13T23:51:43.091Z,98855.34
2023-01-13T23:54:11.982Z,98851.19
2023-01-13T23:56:39.552Z,98856.84
2023-01-13T23:59:06.694Z,98852.75
